Time,TemperatureF,DewpointF,PressureIn,WindDirection,WindDirectionDegrees,WindSpeedMPH,WindSpeedGustMPH,Humidity,HourlyPrecipIn,Conditions,Clouds,dailyrainin,SoftwareType,DateUTC
2013-09-17 00:03:00,53.5,53.5,29.76,ESE,117,0.0,0.0,100,0.00,,,0.00,Wunderground v.1.15,2013-09-17 07:03:00,
2013-09-17 00:09:00,53.5,53.5,29.76,ESE,117,0.0,0.0,100,0.00,,,0.00,Wunderground v.1.15,2013-09-17 07:09:00,
2013-09-17 00:15:00,53.3,53.3,29.76,ESE,117,0.0,0.0,100,0.00,,,0.00,Wunderground v.1.15,2013-09-17 07:15:00,
2013-09-17 00:21:00,53.3,53.3,29.76,ESE,117,0.0,0.0,100,0.00,,,0.00,Wunderground v.1.15,2013-09-17 07:21:00,
2013-09-17 00:26:00,53.2,53.2,29.76,ESE,117,0.0,0.0,100,0.00,,,0.00,Wunderground v.1.15,2013-09-17 07:26:00,
2013-09-17 00:31:00,52.9,52.9,29.76,ESE,117,0.0,0.0,100,0.00,,,0.00,Wunderground v.1.15,2013-09-17 07:31:00,
2013-09-17 00:37:00,52.6,52.6,29.76,ESE,117,0.0,0.0,100,0.00,,,0.00,Wunderground v.1.15,2013-09-17 07:37:00,
2013-09-17 00:42:00,52.5,52.5,29.76,ESE,117,0.0,0.0,100,0.00,,,0.00,Wunderground v.1.15,2013-09-17 07:42:00,
2013-09-17 00:47:00,52.2,52.2,29.76,ESE,117,0.0,0.0,100,0.00,,,0.00,Wunderground v.1.15,2013-09-17 07:47:00,
2013-09-17 00:53:00,51.9,51.9,29.76,ESE,117,0.0,0.0,100,0.00,,,0.00,Wunderground v.1.15,2013-09-17 07:53:00,
2013-09-17 00:58:00,51.7,51.7,29.76,ESE,117,0.0,0.0,100,0.00,,,0.00,Wunderground v.1.15,2013-09-17 07:58:00,
2013-09-17 01:03:00,51.6,51.6,29.75,ESE,117,0.0,0.0,100,0.00,,,0.00,Wunderground v.1.15,2013-09-17 08:03:00,
2013-09-17 01:09:00,51.4,51.4,29.75,ESE,117,0.0,0.0,100,0.00,,,0.00,Wunderground v.1.15,2013-09-17 08:09:00,
2013-09-17 01:14:00,51.4,51.4,29.75,ESE,117,0.0,0.0,100,0.00,,,0.00,Wunderground v.1.15,2013-09-17 08:14:00,
2013-09-17 01:19:00,51.6,51.6,29.76,ESE,117,0.0,0.0,100,0.00,,,0.00,Wunderground v.1.15,2013-09-17 08:19:00,
2013-09-17 01:25:00,51.7,51.7,29.76,ESE,117,0.0,0.0,100,0.00,,,0.00,Wunderground v.1.15,2013-09-17 08:25:00,
2013-09-17 01:30:00,51.7,51.7,29.76,ESE,117,0.0,0.0,100,0.00,,,0.00,Wunderground v.1.15,2013-09-17 08:30:00,
2013-09-17 01:35:00,52.0,52.0,29.76,ESE,117,0.0,0.0,100,0.00,,,0.00,Wunderground v.1.15,2013-09-17 08:35:00,
2013-09-17 01:41:00,52.3,52.3,29.76,ESE,117,0.0,0.0,100,0.00,,,0.00,Wunderground v.1.15,2013-09-17 08:41:00,
2013-09-17 01:46:00,52.5,52.5,29.76,ESE,117,0.0,0.0,100,0.00,,,0.00,Wunderground v.1.15,2013-09-17 08:46:00,
2013-09-17 01:51:00,52.5,52.5,29.76,ESE,117,0.0,0.0,100,0.00,,,0.00,Wunderground v.1.15,2013-09-17 08:51:00,
2013-09-17 01:57:00,52.5,52.5,29.76,ESE,117,0.0,0.0,100,0.00,,,0.00,Wunderground v.1.15,2013-09-17 08:57:00,
2013-09-17 02:02:00,52.5,52.5,29.76,ESE,117,0.0,0.0,100,0.00,,,0.00,Wunderground v.1.15,2013-09-17 09:02:00,
2013-09-17 02:07:00,52.3,52.3,29.76,ESE,117,0.0,0.0,100,0.00,,,0.00,Wunderground v.1.15,2013-09-17 09:07:00,
2013-09-17 02:12:00,52.2,52.2,29.76,ESE,117,0.0,0.0,100,0.00,,,0.00,Wunderground v.1.15,2013-09-17 09:12:00,
2013-09-17 02:17:00,51.9,51.9,29.76,ESE,117,0.0,0.0,100,0.00,,,0.00,Wunderground v.1.15,2013-09-17 09:17:00,
2013-09-17 02:22:00,51.7,51.7,29.76,ESE,117,0.0,0.0,100,0.00,,,0.00,Wunderground v.1.15,2013-09-17 09:22:00,
2013-09-17 02:27:00,51.4,51.4,29.76,ESE,117,0.0,0.0,100,0.00,,,0.00,Wunderground v.1.15,2013-09-17 09:27:00,
2013-09-17 02:32:00,51.1,51.1,29.75,ESE,117,0.0,0.0,100,0.00,,,0.00,Wunderground v.1.15,2013-09-17 09:32:00,
2013-09-17 02:37:00,50.8,50.8,29.75,ESE,117,0.0,0.0,100,0.00,,,0.00,Wunderground v.1.15,2013-09-17 09:37:00,
2013-09-17 02:42:00,50.7,50.7,29.75,ESE,117,0.0,0.0,100,0.00,,,0.00,Wunderground v.1.15,2013-09-17 09:42:00,
2013-09-17 02:47:00,50.5,50.5,29.75,ESE,117,0.0,0.0,100,0.00,,,0.00,Wunderground v.1.15,2013-09-17 09:47:00,
2013-09-17 02:52:00,50.7,50.7,29.75,ESE,117,0.0,0.0,100,0.00,,,0.00,Wunderground v.1.15,2013-09-17 09:52:00,
2013-09-17 02:57:00,50.7,50.7,29.75,ESE,117,0.0,0.0,100,0.00,,,0.00,Wunderground v.1.15,2013-09-17 09:57:00,
2013-09-17 03:02:00,50.7,50.7,29.74,ESE,117,0.0,0.0,100,0.00,,,0.00,Wunderground v.1.15,2013-09-17 10:02:00,
2013-09-17 03:07:00,51.0,51.0,29.74,ESE,117,0.0,0.0,100,0.00,,,0.00,Wunderground v.1.15,2013-09-17 10:07:00,
2013-09-17 03:12:00,51.1,51.1,29.74,ESE,117,0.0,0.0,100,0.00,,,0.00,Wunderground v.1.15,2013-09-17 10:12:00,
2013-09-17 03:17:00,51.4,51.4,29.74,ESE,117,0.0,0.0,100,0.00,,,0.00,Wunderground v.1.15,2013-09-17 10:17:00,
2013-09-17 03:22:00,51.6,51.6,29.74,ESE,117,0.0,0.0,100,0.00,,,0.00,Wunderground v.1.15,2013-09-17 10:22:00,
2013-09-17 03:27:00,52.0,52.0,29.74,ESE,117,0.0,0.0,100,0.00,,,0.00,Wunderground v.1.15,2013-09-17 10:27:00,
2013-09-17 03:32:00,52.5,52.5,29.74,ESE,117,0.0,0.0,100,0.00,,,0.00,Wunderground v.1.15,2013-09-17 10:32:00,
2013-09-17 03:37:00,52.6,52.6,29.74,ESE,117,0.0,0.0,100,0.00,,,0.00,Wunderground v.1.15,2013-09-17 10:37:00,
2013-09-17 03:42:00,52.8,52.8,29.74,ESE,117,0.0,0.0,100,0.00,,,0.00,Wunderground v.1.15,2013-09-17 10:42:00,
2013-09-17 03:47:00,53.1,53.1,29.75,ESE,117,0.0,0.0,100,0.00,,,0.00,Wunderground v.1.15,2013-09-17 10:47:00,
2013-09-17 03:53:00,53.3,53.3,29.75,ESE,117,0.0,0.0,100,0.00,,,0.00,Wunderground v.1.15,2013-09-17 10:53:00,
2013-09-17 03:58:00,53.5,53.5,29.75,ESE,117,0.0,0.0,100,0.00,,,0.00,Wunderground v.1.15,2013-09-17 10:58:00,
2013-09-17 04:03:00,53.5,53.5,29.75,ESE,117,0.0,0.0,100,0.00,,,0.00,Wunderground v.1.15,2013-09-17 11:03:00,
2013-09-17 04:08:00,53.5,53.5,29.75,ESE,117,0.0,0.0,100,0.00,,,0.00,Wunderground v.1.15,2013-09-17 11:08:00,
2013-09-17 04:13:00,53.3,53.3,29.75,ESE,117,0.0,0.0,100,0.00,,,0.00,Wunderground v.1.15,2013-09-17 11:13:00,
2013-09-17 04:18:00,53.3,53.3,29.75,ESE,117,0.0,0.0,100,0.00,,,0.00,Wunderground v.1.15,2013-09-17 11:18:00,
2013-09-17 04:23:00,53.2,53.2,29.75,ESE,117,0.0,0.0,100,0.00,,,0.00,Wunderground v.1.15,2013-09-17 11:23:00,
2013-09-17 04:28:00,53.2,53.2,29.75,ESE,117,0.0,0.0,100,0.00,,,0.00,Wunderground v.1.15,2013-09-17 11:28:00,
2013-09-17 04:33:00,53.2,53.2,29.75,ESE,117,0.0,0.0,100,0.00,,,0.00,Wunderground v.1.15,2013-09-17 11:33:00,
2013-09-17 04:38:00,53.2,53.2,29.75,ESE,117,0.0,0.0,100,0.00,,,0.00,Wunderground v.1.15,2013-09-17 11:38:00,
2013-09-17 04:43:00,53.3,53.3,29.75,ESE,117,0.0,0.0,100,0.00,,,0.00,Wunderground v.1.15,2013-09-17 11:43:00,
2013-09-17 04:48:00,53.3,53.3,29.75,ESE,117,0.0,0.0,100,0.00,,,0.00,Wunderground v.1.15,2013-09-17 11:48:00,
2013-09-17 04:53:00,53.2,53.2,29.75,ESE,117,0.0,0.0,100,0.00,,,0.00,Wunderground v.1.15,2013-09-17 11:53:00,
2013-09-17 04:58:00,53.2,53.2,29.75,ESE,117,0.0,0.0,100,0.00,,,0.00,Wunderground v.1.15,2013-09-17 11:58:00,
2013-09-17 05:03:00,53.2,53.2,29.75,ESE,117,0.0,0.0,100,0.00,,,0.00,Wunderground v.1.15,2013-09-17 12:03:00,
2013-09-17 05:08:00,53.1,53.1,29.75,ESE,117,0.0,0.0,100,0.00,,,0.00,Wunderground v.1.15,2013-09-17 12:08:00,
2013-09-17 05:13:00,53.1,53.1,29.75,ESE,117,0.0,0.0,100,0.00,,,0.00,Wunderground v.1.15,2013-09-17 12:13:00,
2013-09-17 05:18:00,53.2,53.2,29.75,ESE,117,0.0,0.0,100,0.00,,,0.00,Wunderground v.1.15,2013-09-17 12:18:00,
2013-09-17 05:23:00,53.1,53.1,29.75,ESE,117,0.0,1.0,100,0.00,,,0.00,Wunderground v.1.15,2013-09-17 12:23:00,
2013-09-17 05:28:00,53.1,53.1,29.75,ESE,117,0.0,1.0,100,0.00,,,0.00,Wunderground v.1.15,2013-09-17 12:28:00,
2013-09-17 05:33:00,53.1,53.1,29.76,ESE,117,0.0,0.0,100,0.00,,,0.00,Wunderground v.1.15,2013-09-17 12:33:00,
2013-09-17 05:38:00,52.9,52.9,29.76,ESE,117,0.0,0.0,100,0.00,,,0.00,Wunderground v.1.15,2013-09-17 12:38:00,
2013-09-17 05:43:00,52.9,52.9,29.76,ESE,117,0.0,0.0,100,0.00,,,0.00,Wunderground v.1.15,2013-09-17 12:43:00,
2013-09-17 05:48:00,52.8,52.8,29.75,ESE,117,0.0,0.0,100,0.00,,,0.00,Wunderground v.1.15,2013-09-17 12:48:00,
2013-09-17 05:53:00,52.8,52.8,29.75,ESE,117,0.0,0.0,100,0.00,,,0.00,Wunderground v.1.15,2013-09-17 12:53:00,
2013-09-17 05:58:00,52.6,52.6,29.75,ESE,117,0.0,0.0,100,0.00,,,0.00,Wunderground v.1.15,2013-09-17 12:58:00,
2013-09-17 06:03:00,52.5,52.5,29.75,ESE,117,0.0,0.0,100,0.00,,,0.00,Wunderground v.1.15,2013-09-17 13:03:00,
2013-09-17 06:08:00,52.2,52.2,29.75,ESE,117,0.0,0.0,100,0.00,,,0.00,Wunderground v.1.15,2013-09-17 13:08:00,
2013-09-17 06:13:00,51.9,51.9,29.75,ESE,117,0.0,0.0,100,0.00,,,0.00,Wunderground v.1.15,2013-09-17 13:13:00,
2013-09-17 06:18:00,51.7,51.7,29.76,ESE,117,0.0,0.0,100,0.00,,,0.00,Wunderground v.1.15,2013-09-17 13:18:00,
2013-09-17 06:23:00,51.6,51.6,29.76,ESE,117,0.0,0.0,100,0.00,,,0.00,Wunderground v.1.15,2013-09-17 13:23:00,
2013-09-17 06:28:00,51.6,51.6,29.76,ESE,117,0.0,0.0,100,0.00,,,0.00,Wunderground v.1.15,2013-09-17 13:28:00,
2013-09-17 06:33:00,51.6,51.6,29.76,ESE,117,0.0,0.0,100,0.00,,,0.00,Wunderground v.1.15,2013-09-17 13:33:00,
2013-09-17 06:38:00,51.6,51.6,29.76,ESE,117,0.0,0.0,100,0.00,,,0.00,Wunderground v.1.15,2013-09-17 13:38:00,
2013-09-17 06:43:00,51.7,51.7,29.76,ESE,117,0.0,0.0,100,0.00,,,0.00,Wunderground v.1.15,2013-09-17 13:43:00,
2013-09-17 06:48:00,51.9,51.9,29.77,ESE,117,0.0,0.0,100,0.00,,,0.00,Wunderground v.1.15,2013-09-17 13:48:00,
2013-09-17 06:53:00,52.0,52.0,29.77,ESE,117,0.0,0.0,100,0.00,,,0.00,Wunderground v.1.15,2013-09-17 13:53:00,
2013-09-17 06:58:00,52.0,52.0,29.77,ESE,117,0.0,0.0,100,0.00,,,0.00,Wunderground v.1.15,2013-09-17 13:58:00,
2013-09-17 07:03:00,52.2,52.2,29.77,ESE,117,0.0,0.0,100,0.00,,,0.00,Wunderground v.1.15,2013-09-17 14:03:00,
2013-09-17 07:08:00,52.3,52.3,29.77,ESE,117,0.0,0.0,100,0.00,,,0.00,Wunderground v.1.15,2013-09-17 14:08:00,
2013-09-17 07:13:00,52.5,52.5,29.77,ESE,117,0.0,0.0,100,0.00,,,0.00,Wunderground v.1.15,2013-09-17 14:13:00,
2013-09-17 07:18:00,52.6,52.6,29.77,ESE,117,0.0,0.0,100,0.00,,,0.00,Wunderground v.1.15,2013-09-17 14:18:00,
2013-09-17 07:23:00,52.6,52.6,29.77,ESE,117,0.0,0.0,100,0.00,,,0.00,Wunderground v.1.15,2013-09-17 14:23:00,
2013-09-17 07:28:00,52.6,52.6,29.77,ESE,117,0.0,0.0,100,0.00,,,0.00,Wunderground v.1.15,2013-09-17 14:28:00,
2013-09-17 07:33:00,52.6,52.6,29.78,ESE,117,0.0,0.0,100,0.00,,,0.00,Wunderground v.1.15,2013-09-17 14:33:00,
2013-09-17 07:38:00,52.5,52.5,29.78,ESE,117,0.0,0.0,100,0.00,,,0.00,Wunderground v.1.15,2013-09-17 14:38:00,
2013-09-17 07:43:00,52.5,52.5,29.78,ESE,117,0.0,0.0,100,0.00,,,0.00,Wunderground v.1.15,2013-09-17 14:43:00,
2013-09-17 07:48:00,52.6,52.6,29.78,ESE,117,0.0,0.0,100,0.00,,,0.00,Wunderground v.1.15,2013-09-17 14:48:00,
2013-09-17 07:53:00,52.6,52.6,29.78,ESE,117,0.0,1.0,100,0.00,,,0.00,Wunderground v.1.15,2013-09-17 14:53:00,
2013-09-17 07:58:00,52.6,52.6,29.78,ESE,117,0.0,1.0,100,0.00,,,0.00,Wunderground v.1.15,2013-09-17 14:58:00,
2013-09-17 08:03:00,52.8,52.8,29.79,ESE,117,0.0,1.0,100,0.00,,,0.00,Wunderground v.1.15,2013-09-17 15:03:00,
2013-09-17 08:09:00,52.8,52.8,29.79,ESE,117,0.0,1.0,100,0.00,,,0.00,Wunderground v.1.15,2013-09-17 15:09:00,
2013-09-17 08:14:00,52.9,52.9,29.79,ESE,117,0.0,0.0,100,0.00,,,0.00,Wunderground v.1.15,2013-09-17 15:14:00,
2013-09-17 08:19:00,52.9,52.9,29.79,ESE,117,0.0,0.0,100,0.00,,,0.00,Wunderground v.1.15,2013-09-17 15:19:00,
2013-09-17 08:24:00,53.3,53.3,29.79,ESE,117,0.0,1.0,100,0.00,,,0.00,Wunderground v.1.15,2013-09-17 15:24:00,
2013-09-17 08:29:00,53.5,53.5,29.79,ESE,117,0.0,1.0,100,0.00,,,0.00,Wunderground v.1.15,2013-09-17 15:29:00,
2013-09-17 08:34:00,53.9,53.9,29.79,ESE,117,0.0,0.0,100,0.00,,,0.00,Wunderground v.1.15,2013-09-17 15:34:00,
2013-09-17 08:39:00,54.4,54.4,29.79,ESE,117,0.0,0.0,100,0.00,,,0.00,Wunderground v.1.15,2013-09-17 15:39:00,
2013-09-17 08:44:00,54.8,54.8,29.79,ESE,117,0.0,0.0,100,0.00,,,0.00,Wunderground v.1.15,2013-09-17 15:44:00,
2013-09-17 08:49:00,54.7,54.7,29.78,ESE,117,2.0,3.0,100,0.00,,,0.00,Wunderground v.1.15,2013-09-17 15:49:00,
2013-09-17 08:54:00,54.5,54.5,29.78,ESE,117,0.0,3.0,100,0.00,,,0.00,Wunderground v.1.15,2013-09-17 15:54:00,
2013-09-17 08:59:00,55.0,55.0,29.78,ESE,117,0.0,3.0,100,0.00,,,0.00,Wunderground v.1.15,2013-09-17 15:59:00,
2013-09-17 09:04:00,56.0,56.0,29.79,ESE,117,0.0,0.0,100,0.00,,,0.00,Wunderground v.1.15,2013-09-17 16:04:00,
2013-09-17 09:09:00,57.2,57.2,29.79,ESE,113,0.0,1.0,100,0.00,,,0.00,Wunderground v.1.15,2013-09-17 16:09:00,
2013-09-17 09:14:00,58.0,58.0,29.79,ESE,113,0.0,1.0,100,0.00,,,0.00,Wunderground v.1.15,2013-09-17 16:14:00,
2013-09-17 09:19:00,58.4,58.4,29.78,ESE,109,0.0,2.0,100,0.00,,,0.00,Wunderground v.1.15,2013-09-17 16:19:00,
2013-09-17 09:24:00,58.9,58.9,29.78,ESE,109,0.0,2.0,100,0.00,,,0.00,Wunderground v.1.15,2013-09-17 16:24:00,
2013-09-17 09:30:00,59.5,59.5,29.78,ENE,73,0.0,3.0,100,0.00,,,0.00,Wunderground v.1.15,2013-09-17 16:30:00,
2013-09-17 09:35:00,60.2,60.2,29.78,ENE,73,1.0,1.0,100,0.00,,,0.00,Wunderground v.1.15,2013-09-17 16:35:00,
2013-09-17 09:40:00,61.0,61.0,29.78,East,83,0.0,2.0,100,0.00,,,0.00,Wunderground v.1.15,2013-09-17 16:40:00,
2013-09-17 09:45:00,62.3,62.3,29.78,East,83,0.0,1.0,100,0.00,,,0.00,Wunderground v.1.15,2013-09-17 16:45:00,
2013-09-17 09:50:00,63.2,61.7,29.78,ESE,112,0.0,0.0,95,0.00,,,0.00,Wunderground v.1.15,2013-09-17 16:50:00,
2013-09-17 09:55:00,64.2,60.9,29.78,ESE,112,0.0,3.0,89,0.00,,,0.00,Wunderground v.1.15,2013-09-17 16:55:00,
2013-09-17 10:00:00,65.3,61.3,29.78,SE,134,3.0,3.0,87,0.00,,,0.00,Wunderground v.1.15,2013-09-17 17:00:00,
2013-09-17 10:05:00,65.5,60.2,29.78,WNW,287,0.0,4.0,83,0.00,,,0.01,Wunderground v.1.15,2013-09-17 17:05:00,
2013-09-17 10:10:00,65.3,59.3,29.78,WSW,250,3.0,3.0,81,0.00,,,0.01,Wunderground v.1.15,2013-09-17 17:10:00,
2013-09-17 10:15:00,64.5,58.5,29.79,SW,217,0.0,3.0,81,0.00,,,0.01,Wunderground v.1.15,2013-09-17 17:15:00,
2013-09-17 10:20:00,64.0,58.4,29.79,SW,233,2.0,2.0,82,0.00,,,0.01,Wunderground v.1.15,2013-09-17 17:20:00,
2013-09-17 10:25:00,64.2,58.6,29.79,SW,222,0.0,5.0,82,0.00,,,0.01,Wunderground v.1.15,2013-09-17 17:25:00,
2013-09-17 10:30:00,64.5,58.5,29.79,SW,220,0.0,1.0,81,0.00,,,0.01,Wunderground v.1.15,2013-09-17 17:30:00,
2013-09-17 10:35:00,65.2,58.9,29.79,South,181,0.0,2.0,80,0.00,,,0.01,Wunderground v.1.15,2013-09-17 17:35:00,
2013-09-17 10:40:00,65.8,58.7,29.79,South,173,0.0,2.0,78,0.00,,,0.01,Wunderground v.1.15,2013-09-17 17:40:00,
2013-09-17 10:45:00,66.1,58.3,29.78,SW,219,3.0,6.0,76,0.00,,,0.01,Wunderground v.1.15,2013-09-17 17:45:00,
2013-09-17 10:50:00,66.3,58.1,29.78,SSE,155,0.0,1.0,75,0.00,,,0.01,Wunderground v.1.15,2013-09-17 17:50:00,
2013-09-17 10:55:00,66.6,57.7,29.78,SSW,202,0.0,4.0,73,0.00,,,0.01,Wunderground v.1.15,2013-09-17 17:55:00,
2013-09-17 11:00:00,66.8,57.9,29.78,South,180,0.0,1.0,73,0.00,,,0.01,Wunderground v.1.15,2013-09-17 18:00:00,
2013-09-17 11:05:00,67.1,57.8,29.78,SSW,205,0.0,3.0,72,0.00,,,0.01,Wunderground v.1.15,2013-09-17 18:05:00,
2013-09-17 11:10:00,67.4,58.1,29.78,South,188,1.0,1.0,72,0.00,,,0.01,Wunderground v.1.15,2013-09-17 18:10:00,
2013-09-17 11:15:00,67.3,58.0,29.78,South,191,1.0,5.0,72,0.00,,,0.01,Wunderground v.1.15,2013-09-17 18:15:00,
2013-09-17 11:20:00,67.3,58.3,29.78,North,4,0.0,1.0,73,0.00,,,0.01,Wunderground v.1.15,2013-09-17 18:20:00,
2013-09-17 11:25:00,67.6,58.2,29.78,SSE,150,0.0,4.0,72,0.00,,,0.01,Wunderground v.1.15,2013-09-17 18:25:00,
2013-09-17 11:30:00,68.1,57.9,29.78,SSE,150,1.0,2.0,70,0.00,,,0.01,Wunderground v.1.15,2013-09-17 18:30:00,
2013-09-17 11:35:00,68.1,58.3,29.78,SE,124,3.0,5.0,71,0.00,,,0.01,Wunderground v.1.15,2013-09-17 18:35:00,
2013-09-17 11:40:00,67.9,58.1,29.78,ENE,72,0.0,1.0,71,0.00,,,0.01,Wunderground v.1.15,2013-09-17 18:40:00,
2013-09-17 11:45:00,68.4,58.2,29.78,West,266,0.0,4.0,70,0.00,,,0.01,Wunderground v.1.15,2013-09-17 18:45:00,
2013-09-17 11:50:00,68.9,58.7,29.78,SSE,152,0.0,1.0,70,0.00,,,0.01,Wunderground v.1.15,2013-09-17 18:50:00,
2013-09-17 11:55:00,69.3,59.1,29.78,South,176,2.0,3.0,70,0.00,,,0.01,Wunderground v.1.15,2013-09-17 18:55:00,
2013-09-17 12:00:00,68.9,58.3,29.77,North,358,1.0,2.0,69,0.00,,,0.01,Wunderground v.1.15,2013-09-17 19:00:00,
2013-09-17 12:05:00,68.6,58.4,29.77,ESE,107,0.0,6.0,70,0.00,,,0.01,Wunderground v.1.15,2013-09-17 19:05:00,
2013-09-17 12:10:00,68.3,57.7,29.77,North,1,4.0,4.0,69,0.00,,,0.01,Wunderground v.1.15,2013-09-17 19:10:00,
2013-09-17 12:15:00,67.6,57.9,29.77,SSE,157,1.0,6.0,71,0.00,,,0.01,Wunderground v.1.15,2013-09-17 19:15:00,
2013-09-17 12:20:00,67.9,57.8,29.77,South,176,2.0,3.0,70,0.00,,,0.01,Wunderground v.1.15,2013-09-17 19:20:00,
2013-09-17 12:25:00,68.4,58.2,29.77,West,267,2.0,3.0,70,0.00,,,0.01,Wunderground v.1.15,2013-09-17 19:25:00,
2013-09-17 12:30:00,68.9,58.3,29.76,ENE,77,1.0,3.0,69,0.00,,,0.01,Wunderground v.1.15,2013-09-17 19:30:00,
2013-09-17 12:35:00,69.1,58.1,29.76,South,188,2.0,3.0,68,0.00,,,0.01,Wunderground v.1.15,2013-09-17 19:35:00,
2013-09-17 12:40:00,69.3,58.3,29.76,South,174,2.0,4.0,68,0.00,,,0.01,Wunderground v.1.15,2013-09-17 19:40:00,
2013-09-17 12:45:00,69.1,58.5,29.76,SSW,207,1.0,4.0,69,0.00,,,0.01,Wunderground v.1.15,2013-09-17 19:45:00,
2013-09-17 12:50:00,68.6,58.0,29.76,West,280,2.0,5.0,69,0.00,,,0.01,Wunderground v.1.15,2013-09-17 19:50:00,
2013-09-17 12:55:00,68.4,57.4,29.76,North,2,0.0,12.0,68,0.00,,,0.01,Wunderground v.1.15,2013-09-17 19:55:00,
2013-09-17 13:00:00,68.4,57.8,29.76,ESE,115,2.0,5.0,69,0.00,,,0.01,Wunderground v.1.15,2013-09-17 20:00:00,
2013-09-17 13:06:00,68.6,57.6,29.76,ESE,115,1.0,11.0,68,0.00,,,0.01,Wunderground v.1.15,2013-09-17 20:06:00,
2013-09-17 13:11:00,68.6,58.4,29.76,NE,41,0.0,3.0,70,0.00,,,0.01,Wunderground v.1.15,2013-09-17 20:11:00,
2013-09-17 13:16:00,68.3,57.7,29.76,North,9,9.0,12.0,69,0.00,,,0.01,Wunderground v.1.15,2013-09-17 20:16:00,
2013-09-17 13:21:00,67.9,57.8,29.76,SSE,160,0.0,5.0,70,0.00,,,0.01,Wunderground v.1.15,2013-09-17 20:21:00,
2013-09-17 13:28:00,68.1,56.3,29.76,North,11,2.0,9.0,66,0.00,,,0.01,Wunderground v.1.15,2013-09-17 20:28:00,
2013-09-17 13:33:00,68.3,57.7,29.75,SSE,162,0.0,6.0,69,0.00,,,0.01,Wunderground v.1.15,2013-09-17 20:33:00,
2013-09-17 13:38:00,68.4,57.4,29.75,SW,219,3.0,6.0,68,0.00,,,0.01,Wunderground v.1.15,2013-09-17 20:38:00,
2013-09-17 14:03:00,68.9,57.5,29.74,South,179,2.0,5.0,67,0.00,,,0.01,Wunderground v.1.15,2013-09-17 21:03:00,
2013-09-17 14:08:00,68.9,57.9,29.74,SSE,155,0.0,7.0,68,0.00,,,0.01,Wunderground v.1.15,2013-09-17 21:08:00,
2013-09-17 14:13:00,68.9,57.9,29.74,SE,140,3.0,10.0,68,0.00,,,0.01,Wunderground v.1.15,2013-09-17 21:13:00,
2013-09-17 14:18:00,68.4,57.8,29.74,WNW,293,2.0,10.0,69,0.00,,,0.01,Wunderground v.1.15,2013-09-17 21:18:00,
2013-09-17 14:23:00,67.9,57.8,29.74,NNW,340,3.0,6.0,70,0.00,,,0.01,Wunderground v.1.15,2013-09-17 21:23:00,
2013-09-17 14:28:00,67.8,57.7,29.74,SW,214,2.0,6.0,70,0.00,,,0.01,Wunderground v.1.15,2013-09-17 21:28:00,
2013-09-17 14:34:00,67.9,57.8,29.74,ESE,108,4.0,9.0,70,0.00,,,0.01,Wunderground v.1.15,2013-09-17 21:34:00,
2013-09-17 14:39:00,67.8,57.3,29.74,West,279,3.0,9.0,69,0.00,,,0.01,Wunderground v.1.15,2013-09-17 21:39:00,
2013-09-17 14:44:00,67.4,56.9,29.74,NE,51,3.0,6.0,69,0.00,,,0.01,Wunderground v.1.15,2013-09-17 21:44:00,
2013-09-17 14:49:00,67.1,57.0,29.73,ESE,115,1.0,9.0,70,0.00,,,0.01,Wunderground v.1.15,2013-09-17 21:49:00,
2013-09-17 14:54:00,66.9,56.8,29.73,NW,304,2.0,7.0,70,0.00,,,0.01,Wunderground v.1.15,2013-09-17 21:54:00,
2013-09-17 14:59:00,66.9,56.8,29.73,WSW,243,1.0,7.0,70,0.00,,,0.01,Wunderground v.1.15,2013-09-17 21:59:00,
2013-09-17 15:04:00,67.1,56.6,29.73,ESE,106,0.0,5.0,69,0.00,,,0.01,Wunderground v.1.15,2013-09-17 22:04:00,
2013-09-17 15:09:00,67.1,56.2,29.73,SE,141,0.0,12.0,68,0.00,,,0.01,Wunderground v.1.15,2013-09-17 22:09:00,
2013-09-17 15:14:00,67.3,56.4,29.73,WSW,240,0.0,7.0,68,0.00,,,0.01,Wunderground v.1.15,2013-09-17 22:14:00,
2013-09-17 15:19:00,66.9,56.4,29.73,SSE,147,1.0,7.0,69,0.00,,,0.01,Wunderground v.1.15,2013-09-17 22:19:00,
2013-09-17 15:24:00,66.6,56.1,29.73,North,357,3.0,6.0,69,0.00,,,0.01,Wunderground v.1.15,2013-09-17 22:24:00,
2013-09-17 15:29:00,66.3,56.2,29.73,SE,134,2.0,9.0,70,0.00,,,0.01,Wunderground v.1.15,2013-09-17 22:29:00,
2013-09-17 15:34:00,66.1,56.0,29.73,East,87,3.0,5.0,70,0.00,,,0.01,Wunderground v.1.15,2013-09-17 22:34:00,
2013-09-17 15:39:00,65.8,56.1,29.73,ESE,123,1.0,7.0,71,0.00,,,0.01,Wunderground v.1.15,2013-09-17 22:39:00,
2013-09-17 15:44:00,66.0,55.9,29.73,NNE,18,4.0,6.0,70,0.00,,,0.01,Wunderground v.1.15,2013-09-17 22:44:00,
2013-09-17 15:49:00,65.8,55.7,29.73,South,182,2.0,6.0,70,0.00,,,0.01,Wunderground v.1.15,2013-09-17 22:49:00,
2013-09-17 15:54:00,65.5,55.8,29.73,North,359,1.0,10.0,71,0.00,,,0.01,Wunderground v.1.15,2013-09-17 22:54:00,
2013-09-17 15:59:00,64.8,55.6,29.73,ESE,103,2.0,10.0,72,0.00,,,0.01,Wunderground v.1.15,2013-09-17 22:59:00,
2013-09-17 16:04:00,64.8,55.2,29.73,NW,307,1.0,14.0,71,0.00,,,0.01,Wunderground v.1.15,2013-09-17 23:04:00,
2013-09-17 16:09:00,64.5,54.9,29.73,South,170,1.0,14.0,71,0.00,,,0.01,Wunderground v.1.15,2013-09-17 23:09:00,
2013-09-17 16:14:00,64.2,55.0,29.73,SW,228,0.0,7.0,72,0.00,,,0.01,Wunderground v.1.15,2013-09-17 23:14:00,
2013-09-17 16:19:00,64.2,55.0,29.72,North,1,4.0,7.0,72,0.00,,,0.01,Wunderground v.1.15,2013-09-17 23:19:00,
2013-09-17 16:24:00,64.0,54.8,29.72,South,184,0.0,14.0,72,0.00,,,0.01,Wunderground v.1.15,2013-09-17 23:24:00,
2013-09-17 16:29:00,64.2,55.0,29.72,SSE,164,0.0,14.0,72,0.00,,,0.01,Wunderground v.1.15,2013-09-17 23:29:00,
2013-09-17 16:34:00,64.0,54.8,29.72,North,1,1.0,6.0,72,0.00,,,0.01,Wunderground v.1.15,2013-09-17 23:34:00,
2013-09-17 16:39:00,63.9,54.7,29.72,South,170,2.0,14.0,72,0.00,,,0.01,Wunderground v.1.15,2013-09-17 23:39:00,
2013-09-17 16:44:00,63.7,54.9,29.72,SW,215,4.0,10.0,73,0.00,,,0.01,Wunderground v.1.15,2013-09-17 23:44:00,
2013-09-17 16:49:00,63.5,54.3,29.72,East,96,2.0,10.0,72,0.00,,,0.01,Wunderground v.1.15,2013-09-17 23:49:00,
2013-09-17 16:54:00,63.4,54.2,29.72,East,85,0.0,10.0,72,0.00,,,0.01,Wunderground v.1.15,2013-09-17 23:54:00,
2013-09-17 16:59:00,63.2,54.4,29.72,SSE,165,1.0,12.0,73,0.00,,,0.01,Wunderground v.1.15,2013-09-17 23:59:00,
2013-09-17 17:04:00,63.1,54.3,29.71,WNW,291,5.0,7.0,73,0.00,,,0.01,Wunderground v.1.15,2013-09-18 00:04:00,
2013-09-17 17:09:00,62.9,54.1,29.71,ENE,65,0.0,9.0,73,0.00,,,0.01,Wunderground v.1.15,2013-09-18 00:09:00,
2013-09-17 17:14:00,62.9,54.1,29.71,SSE,158,0.0,10.0,73,0.00,,,0.01,Wunderground v.1.15,2013-09-18 00:14:00,
2013-09-17 17:19:00,62.9,54.1,29.71,NNW,342,2.0,10.0,73,0.00,,,0.01,Wunderground v.1.15,2013-09-18 00:19:00,
2013-09-17 17:24:00,62.6,54.2,29.71,SSE,153,1.0,9.0,74,0.00,,,0.01,Wunderground v.1.15,2013-09-18 00:24:00,
2013-09-17 17:29:00,62.4,54.0,29.71,West,264,2.0,9.0,74,0.00,,,0.01,Wunderground v.1.15,2013-09-18 00:29:00,
2013-09-17 17:34:00,62.3,53.9,29.71,North,356,1.0,6.0,74,0.00,,,0.01,Wunderground v.1.15,2013-09-18 00:34:00,
2013-09-17 17:39:00,62.3,53.9,29.71,SSW,194,2.0,9.0,74,0.00,,,0.01,Wunderground v.1.15,2013-09-18 00:39:00,
2013-09-17 17:44:00,62.0,54.0,29.71,SW,226,5.0,9.0,75,0.00,,,0.01,Wunderground v.1.15,2013-09-18 00:44:00,
2013-09-17 17:49:00,61.6,53.6,29.71,NNW,341,3.0,10.0,75,0.00,,,0.01,Wunderground v.1.15,2013-09-18 00:49:00,
2013-09-17 17:54:00,61.3,53.7,29.71,ESE,120,3.0,10.0,76,0.00,,,0.01,Wunderground v.1.15,2013-09-18 00:54:00,
2013-09-17 17:59:00,61.0,53.7,29.71,NNW,328,2.0,10.0,77,0.00,,,0.01,Wunderground v.1.15,2013-09-18 00:59:00,
2013-09-17 18:04:00,60.9,53.6,29.71,North,5,3.0,7.0,77,0.00,,,0.01,Wunderground v.1.15,2013-09-18 01:04:00,
2013-09-17 18:09:00,60.7,53.8,29.71,SW,236,0.0,7.0,78,0.00,,,0.01,Wunderground v.1.15,2013-09-18 01:09:00,
2013-09-17 18:14:00,60.5,53.6,29.71,WSW,244,2.0,4.0,78,0.00,,,0.01,Wunderground v.1.15,2013-09-18 01:14:00,
2013-09-17 18:19:00,60.4,53.9,29.71,North,359,1.0,9.0,79,0.00,,,0.01,Wunderground v.1.15,2013-09-18 01:19:00,
2013-09-17 18:24:00,60.2,53.7,29.71,WSW,247,0.0,3.0,79,0.00,,,0.01,Wunderground v.1.15,2013-09-18 01:24:00,
2013-09-17 18:29:00,60.1,53.9,29.71,SW,234,1.0,5.0,80,0.00,,,0.01,Wunderground v.1.15,2013-09-18 01:29:00,
2013-09-17 18:34:00,59.9,53.7,29.71,West,265,0.0,12.0,80,0.00,,,0.01,Wunderground v.1.15,2013-09-18 01:34:00,
2013-09-17 18:39:00,59.8,54.0,29.71,West,262,1.0,12.0,81,0.00,,,0.01,Wunderground v.1.15,2013-09-18 01:39:00,
2013-09-17 18:44:00,59.6,53.8,29.71,West,271,1.0,7.0,81,0.00,,,0.01,Wunderground v.1.15,2013-09-18 01:44:00,
2013-09-17 18:49:00,59.5,54.0,29.72,South,177,1.0,7.0,82,0.00,,,0.01,Wunderground v.1.15,2013-09-18 01:49:00,
2013-09-17 18:54:00,59.3,53.8,29.72,West,272,1.0,4.0,82,0.00,,,0.01,Wunderground v.1.15,2013-09-18 01:54:00,
2013-09-17 18:59:00,59.2,54.0,29.72,South,187,3.0,4.0,83,0.00,,,0.01,Wunderground v.1.15,2013-09-18 01:59:00,
2013-09-17 19:04:00,59.0,53.8,29.72,NW,313,1.0,3.0,83,0.00,,,0.01,Wunderground v.1.15,2013-09-18 02:04:00,
2013-09-17 19:10:00,58.9,54.1,29.72,WNW,293,2.0,6.0,84,0.00,,,0.01,Wunderground v.1.15,2013-09-18 02:10:00,
2013-09-17 19:15:00,58.6,54.1,29.72,South,177,0.0,7.0,85,0.00,,,0.01,Wunderground v.1.15,2013-09-18 02:15:00,
2013-09-17 19:20:00,58.6,54.1,29.72,WNW,282,0.0,2.0,85,0.00,,,0.01,Wunderground v.1.15,2013-09-18 02:20:00,
2013-09-17 19:25:00,58.4,53.9,29.72,WSW,252,2.0,7.0,85,0.00,,,0.01,Wunderground v.1.15,2013-09-18 02:25:00,
2013-09-17 19:30:00,58.3,54.1,29.72,NW,304,2.0,2.0,86,0.00,,,0.01,Wunderground v.1.15,2013-09-18 02:30:00,
2013-09-17 19:35:00,58.1,53.9,29.72,WSW,245,2.0,4.0,86,0.00,,,0.01,Wunderground v.1.15,2013-09-18 02:35:00,
2013-09-17 19:40:00,58.0,53.8,29.72,WSW,255,0.0,1.0,86,0.00,,,0.01,Wunderground v.1.15,2013-09-18 02:40:00,
2013-09-17 19:45:00,57.8,54.0,29.72,WNW,295,2.0,7.0,87,0.00,,,0.01,Wunderground v.1.15,2013-09-18 02:45:00,
2013-09-17 19:50:00,57.6,53.8,29.72,West,271,2.0,2.0,87,0.00,,,0.01,Wunderground v.1.15,2013-09-18 02:50:00,
2013-09-17 19:55:00,57.6,53.8,29.72,WNW,297,3.0,6.0,87,0.00,,,0.01,Wunderground v.1.15,2013-09-18 02:55:00,
2013-09-17 20:00:00,57.5,54.0,29.73,WSW,255,2.0,3.0,88,0.00,,,0.01,Wunderground v.1.15,2013-09-18 03:00:00,
2013-09-17 20:05:00,57.5,54.0,29.73,WSW,247,2.0,6.0,88,0.00,,,0.01,Wunderground v.1.15,2013-09-18 03:05:00,
2013-09-17 20:10:00,57.3,54.1,29.73,West,278,4.0,4.0,89,0.00,,,0.01,Wunderground v.1.15,2013-09-18 03:10:00,
2013-09-17 20:15:00,57.3,54.1,29.73,West,262,1.0,4.0,89,0.00,,,0.01,Wunderground v.1.15,2013-09-18 03:15:00,
2013-09-17 20:20:00,57.2,54.0,29.73,West,264,1.0,3.0,89,0.00,,,0.01,Wunderground v.1.15,2013-09-18 03:20:00,
2013-09-17 20:25:00,57.2,54.0,29.73,WSW,255,0.0,4.0,89,0.00,,,0.01,Wunderground v.1.15,2013-09-18 03:25:00,
2013-09-17 20:30:00,57.0,53.8,29.74,West,262,1.0,1.0,89,0.00,,,0.01,Wunderground v.1.15,2013-09-18 03:30:00,
2013-09-17 20:35:00,56.9,54.0,29.74,SW,221,1.0,3.0,90,0.00,,,0.01,Wunderground v.1.15,2013-09-18 03:35:00,
2013-09-17 20:40:00,56.9,54.0,29.74,WNW,288,0.0,1.0,90,0.00,,,0.01,Wunderground v.1.15,2013-09-18 03:40:00,
2013-09-17 20:45:00,56.7,53.8,29.74,West,279,0.0,3.0,90,0.00,,,0.01,Wunderground v.1.15,2013-09-18 03:45:00,
2013-09-17 20:50:00,56.7,53.8,29.74,WNW,289,3.0,3.0,90,0.00,,,0.01,Wunderground v.1.15,2013-09-18 03:50:00,
2013-09-17 20:55:00,56.6,53.7,29.74,WNW,289,1.0,3.0,90,0.00,,,0.01,Wunderground v.1.15,2013-09-18 03:55:00,
2013-09-17 21:00:00,56.6,53.7,29.74,West,276,4.0,4.0,90,0.00,,,0.01,Wunderground v.1.15,2013-09-18 04:00:00,
2013-09-17 21:01:00,56.6,53.7,29.74,West,275,1.0,4.0,90,0.00,,,0.01,Wunderground v.1.15,2013-09-18 04:01:00,
2013-09-17 21:06:00,56.5,53.9,29.74,West,281,1.0,5.0,91,0.00,,,0.01,Wunderground v.1.15,2013-09-18 04:06:00,
2013-09-17 21:11:00,56.5,53.9,29.74,SW,235,1.0,2.0,91,0.00,,,0.01,Wunderground v.1.15,2013-09-18 04:11:00,
2013-09-17 21:16:00,56.5,53.9,29.74,West,262,3.0,4.0,91,0.00,,,0.01,Wunderground v.1.15,2013-09-18 04:16:00,
2013-09-17 21:21:00,56.5,53.9,29.74,West,259,1.0,3.0,91,0.00,,,0.01,Wunderground v.1.15,2013-09-18 04:21:00,
2013-09-17 21:26:00,56.3,53.7,29.74,West,272,2.0,5.0,91,0.00,,,0.01,Wunderground v.1.15,2013-09-18 04:26:00,
2013-09-17 21:31:00,56.3,54.0,29.74,West,261,1.0,3.0,92,0.00,,,0.01,Wunderground v.1.15,2013-09-18 04:31:00,
2013-09-17 21:36:00,56.2,53.9,29.74,WSW,256,0.0,3.0,92,0.00,,,0.01,Wunderground v.1.15,2013-09-18 04:36:00,
2013-09-17 21:41:00,56.0,53.7,29.74,West,272,0.0,4.0,92,0.00,,,0.01,Wunderground v.1.15,2013-09-18 04:41:00,
2013-09-17 21:46:00,56.0,53.7,29.75,West,271,2.0,4.0,92,0.00,,,0.01,Wunderground v.1.15,2013-09-18 04:46:00,
2013-09-17 21:51:00,55.9,53.6,29.75,West,262,3.0,6.0,92,0.00,,,0.01,Wunderground v.1.15,2013-09-18 04:51:00,
2013-09-17 21:56:00,55.9,53.6,29.75,West,269,3.0,6.0,92,0.00,,,0.01,Wunderground v.1.15,2013-09-18 04:56:00,
2013-09-17 22:01:00,55.9,53.9,29.75,West,278,1.0,2.0,93,0.00,,,0.01,Wunderground v.1.15,2013-09-18 05:01:00,
2013-09-17 22:07:00,55.7,53.7,29.75,West,268,2.0,2.0,93,0.00,,,0.01,Wunderground v.1.15,2013-09-18 05:07:00,
2013-09-17 22:12:00,55.6,53.6,29.75,West,269,0.0,1.0,93,0.00,,,0.01,Wunderground v.1.15,2013-09-18 05:12:00,
2013-09-17 22:17:00,55.4,53.4,29.75,West,269,0.0,1.0,93,0.00,,,0.01,Wunderground v.1.15,2013-09-18 05:17:00,
2013-09-17 22:22:00,55.1,53.1,29.75,West,269,0.0,0.0,93,0.00,,,0.01,Wunderground v.1.15,2013-09-18 05:22:00,
2013-09-17 22:27:00,54.8,52.8,29.75,West,269,0.0,0.0,93,0.00,,,0.01,Wunderground v.1.15,2013-09-18 05:27:00,
2013-09-17 22:31:00,54.5,52.8,29.75,West,269,0.0,0.0,94,0.00,,,0.01,Wunderground v.1.15,2013-09-18 05:31:00,
2013-09-17 22:36:00,54.4,52.7,29.75,West,269,0.0,1.0,94,0.00,,,0.01,Wunderground v.1.15,2013-09-18 05:36:00,
2013-09-17 22:41:00,54.1,52.4,29.75,West,269,0.0,0.0,94,0.00,,,0.01,Wunderground v.1.15,2013-09-18 05:41:00,
2013-09-17 22:46:00,53.8,52.1,29.75,West,269,0.0,0.0,94,0.00,,,0.01,Wunderground v.1.15,2013-09-18 05:46:00,
2013-09-17 22:51:00,53.5,51.8,29.75,West,269,0.0,0.0,94,0.00,,,0.01,Wunderground v.1.15,2013-09-18 05:51:00,
2013-09-17 22:56:00,53.3,51.9,29.75,West,269,0.0,0.0,95,0.00,,,0.01,Wunderground v.1.15,2013-09-18 05:56:00,
2013-09-17 23:01:00,53.1,51.7,29.75,West,269,0.0,0.0,95,0.00,,,0.01,Wunderground v.1.15,2013-09-18 06:01:00,
2013-09-17 23:06:00,52.8,51.4,29.75,West,269,0.0,0.0,95,0.00,,,0.01,Wunderground v.1.15,2013-09-18 06:06:00,
2013-09-17 23:11:00,52.8,51.7,29.75,West,269,0.0,0.0,96,0.00,,,0.01,Wunderground v.1.15,2013-09-18 06:11:00,
2013-09-17 23:16:00,52.6,51.5,29.75,West,269,0.0,0.0,96,0.00,,,0.01,Wunderground v.1.15,2013-09-18 06:16:00,
2013-09-17 23:21:00,52.5,51.4,29.75,West,269,0.0,0.0,96,0.00,,,0.01,Wunderground v.1.15,2013-09-18 06:21:00,
2013-09-17 23:26:00,52.5,51.4,29.75,West,269,0.0,0.0,96,0.00,,,0.01,Wunderground v.1.15,2013-09-18 06:26:00,
2013-09-17 23:31:00,52.5,51.7,29.75,West,269,0.0,0.0,97,0.00,,,0.01,Wunderground v.1.15,2013-09-18 06:31:00,
2013-09-17 23:36:00,52.5,51.7,29.75,West,269,0.0,0.0,97,0.00,,,0.01,Wunderground v.1.15,2013-09-18 06:36:00,
2013-09-17 23:41:00,52.5,51.7,29.75,West,269,0.0,0.0,97,0.00,,,0.01,Wunderground v.1.15,2013-09-18 06:41:00,
2013-09-17 23:46:00,52.3,51.5,29.75,West,269,0.0,0.0,97,0.00,,,0.01,Wunderground v.1.15,2013-09-18 06:46:00,
2013-09-17 23:51:00,52.2,51.4,29.75,West,269,0.0,0.0,97,0.00,,,0.01,Wunderground v.1.15,2013-09-18 06:51:00,
2013-09-17 23:56:00,52.0,51.2,29.75,West,269,0.0,0.0,97,0.00,,,0.01,Wunderground v.1.15,2013-09-18 06:56:00,